Terminal Aerodrome Forecast
Issued by NWS

Home | Current Version | Previous Version | Text Only | Print | Product List | Glossary On
Versions: 1 2 3 4 5 6 7 8 9 10 11 12 13
043
FTUS43 KEAX 221730
TAFMKC
TAF
KMKC 221730Z 2218/2318 24009KT P6SM SKC
     FM230000 VRB05KT P6SM VCTS SCT070CB
     FM231200 VRB03KT P6SM BKN200=

USA.gov is the U.S. government's official web portal to all federal, state and local government web resources and services.